Time;durP1;ratioP1;P1;durP2;ratioP2;P2;SDS_P1;SDS_P2;PMS_P1;PMS_P2;Temp;Humidity;BMP_temperature;BMP_pressure;BME280_temperature;BME280_humidity;BME280_pressure;Samples;Min_cycle;Max_cycle;Signal;HPM_P1;HPM_P2
2022/03/20 00:01:04;;;;;;;;;;;0.60;99.90;;;;;;5033178;28;20428;-70
2022/03/20 00:03:30;;;;;;;;;;;0.50;99.90;;;;;;5032925;28;20335;-70
2022/03/20 00:05:56;;;;;;;;;;;0.60;99.90;;;;;;5032980;28;20397;-70
2022/03/20 00:08:22;;;;;;;;;;;0.50;99.90;;;;;;5033063;28;19909;-70
2022/03/20 00:10:49;;;;;;;;;;;0.60;99.90;;;;;;5032975;28;19916;-70
2022/03/20 00:13:16;;;;;;;;;;;0.60;99.90;;;;;;5032511;28;19995;-70
2022/03/20 00:15:43;;;;;;;;;;;0.50;99.90;;;;;;5043568;28;20247;-70
2022/03/20 00:18:09;;;;;;;;;;;0.40;99.90;;;;;;5039886;28;20405;-70
2022/03/20 00:20:39;;;;;;;;;;;0.40;99.90;;;;;;5032688;28;19917;-70
2022/03/20 00:23:06;;;;;;;;;;;0.40;99.90;;;;;;5032379;28;19913;-69
2022/03/20 00:25:33;;;;;;;;;;;0.50;99.90;;;;;;5032712;28;19909;-70
2022/03/20 00:27:58;;;;;;;;;;;0.60;99.90;;;;;;5032750;28;20317;-70
2022/03/20 00:30:24;;;;;;;;;;;0.50;99.90;;;;;;5032674;28;19913;-70
2022/03/20 00:32:49;;;;;;;;;;;0.50;99.90;;;;;;5032355;28;19920;-70
2022/03/20 00:35:14;;;;;;;;;;;0.50;99.90;;;;;;5032413;28;20357;-70
2022/03/20 00:37:40;;;;;;;;;;;0.50;99.90;;;;;;5032542;28;19909;-70
2022/03/20 00:40:06;;;;;;;;;;;0.50;99.90;;;;;;5032537;28;20285;-70
2022/03/20 00:42:31;;;;;;;;;;;0.40;99.90;;;;;;5032410;28;20519;-70
2022/03/20 00:44:57;;;;;;;;;;;0.40;99.90;;;;;;5038582;28;20354;-70
2022/03/20 00:47:22;;;;;;;;;;;0.30;99.90;;;;;;5036737;28;19909;-70
2022/03/20 00:49:48;;;;;;;;;;;0.40;99.90;;;;;;5032238;28;19913;-70
2022/03/20 00:52:13;;;;;;;;;;;0.40;99.90;;;;;;5032257;28;20370;-70
2022/03/20 00:54:39;;;;;;;;;;;0.50;99.90;;;;;;5032080;28;20389;-69
2022/03/20 00:57:04;;;;;;;;;;;0.40;99.90;;;;;;5031010;28;19916;-70
2022/03/20 00:59:30;;;;;;;;;;;0.40;99.90;;;;;;5032293;28;20334;-70
2022/03/20 01:01:55;;;;;;;;;;;0.40;99.90;;;;;;5031963;28;19955;-70
2022/03/20 01:04:21;;;;;;;;;;;0.40;99.90;;;;;;5031982;28;19964;-70
2022/03/20 01:06:46;;;;;;;;;;;0.30;99.90;;;;;;5032230;28;19916;-70
2022/03/20 01:09:12;;;;;;;;;;;0.30;99.90;;;;;;5032078;28;19916;-70
2022/03/20 01:11:38;;;;;;;;;;;0.30;99.90;;;;;;5031952;28;19974;-70
2022/03/20 01:14:04;;;;;;;;;;;0.30;99.90;;;;;;5030192;28;19920;-70
2022/03/20 01:16:30;;;;;;;;;;;0.30;99.90;;;;;;5044772;28;20294;-70
2022/03/20 01:18:55;;;;;;;;;;;0.20;99.90;;;;;;5032396;28;19959;-69
2022/03/20 01:21:21;;;;;;;;;;;0.20;99.90;;;;;;5032013;28;20328;-70
2022/03/20 01:23:46;;;;;;;;;;;0.30;99.90;;;;;;5031781;28;20326;-70
2022/03/20 01:26:12;;;;;;;;;;;0.40;99.90;;;;;;5031968;28;19909;-70
2022/03/20 01:28:38;;;;;;;;;;;0.40;99.90;;;;;;5031903;28;19910;-69
2022/03/20 01:31:03;;;;;;;;;;;0.50;99.90;;;;;;5031920;28;19913;-69
2022/03/20 01:33:29;;;;;;;;;;;0.40;99.90;;;;;;5031535;28;19925;-69
2022/03/20 01:35:54;;;;;;;;;;;0.40;99.90;;;;;;5033066;28;19913;-70
2022/03/20 01:38:20;;;;;;;;;;;0.30;99.90;;;;;;5035922;28;19917;-70
2022/03/20 01:40:46;;;;;;;;;;;0.30;99.90;;;;;;5035729;28;20024;-70
2022/03/20 01:43:12;;;;;;;;;;;0.30;99.90;;;;;;5035525;28;19909;-70
2022/03/20 01:45:38;;;;;;;;;;;0.30;99.90;;;;;;5048838;28;20408;-70
2022/03/20 01:48:03;;;;;;;;;;;0.20;99.90;;;;;;5041113;28;20289;-70
2022/03/20 01:50:29;;;;;;;;;;;0.00;99.90;;;;;;5035596;28;19991;-70
2022/03/20 01:52:55;;;;;;;;;;;-0.10;99.90;;;;;;5035421;28;20016;-70
2022/03/20 01:55:21;;;;;;;;;;;-0.10;99.90;;;;;;5035361;28;19939;-70
2022/03/20 01:57:47;;;;;;;;;;;0.00;99.90;;;;;;5035471;28;19909;-70
2022/03/20 02:00:15;;;;;;;;;;;0.20;99.90;;;;;;5035447;28;19913;-70
2022/03/20 02:02:41;;;;;;;;;;;0.20;99.90;;;;;;5035126;28;20445;-70
2022/03/20 02:05:07;;;;;;;;;;;0.20;99.90;;;;;;5035205;28;19953;-70
2022/03/20 02:07:35;;;;;;;;;;;0.20;99.90;;;;;;5035401;28;19913;-70
2022/03/20 02:10:02;;;;;;;;;;;0.20;99.90;;;;;;5035174;28;19916;-70
2022/03/20 02:12:28;;;;;;;;;;;0.10;99.90;;;;;;5035118;28;20289;-69
2022/03/20 02:14:55;;;;;;;;;;;0.10;99.90;;;;;;5045156;28;20109;-70
2022/03/20 02:17:21;;;;;;;;;;;0.00;99.90;;;;;;5038440;28;19925;-70
2022/03/20 02:19:46;;;;;;;;;;;0.10;99.90;;;;;;5035104;28;20452;-69
2022/03/20 02:22:11;;;;;;;;;;;0.20;99.90;;;;;;5034969;28;19909;-69
2022/03/20 02:24:42;;;;;;;;;;;0.30;99.90;;;;;;5034791;28;19945;-70
2022/03/20 02:27:09;;;;;;;;;;;0.30;99.90;;;;;;5035046;28;19957;-70
2022/03/20 02:29:35;;;;;;;;;;;0.30;99.90;;;;;;5034820;28;19913;-70
2022/03/20 02:32:01;;;;;;;;;;;0.20;99.90;;;;;;5034744;28;19982;-69
2022/03/20 02:34:27;;;;;;;;;;;0.20;99.90;;;;;;5034680;28;20374;-70
2022/03/20 02:36:53;;;;;;;;;;;0.20;99.90;;;;;;5034840;28;19963;-70
2022/03/20 02:39:19;;;;;;;;;;;0.30;99.90;;;;;;5034655;28;19954;-70
2022/03/20 02:41:44;;;;;;;;;;;0.30;99.90;;;;;;5034594;28;19913;-70
2022/03/20 02:44:10;;;;;;;;;;;0.30;99.90;;;;;;5033838;28;19909;-70
2022/03/20 02:46:37;;;;;;;;;;;0.40;99.90;;;;;;5048449;28;20009;-70
2022/03/20 02:49:06;;;;;;;;;;;0.40;99.90;;;;;;5034688;28;19909;-70
2022/03/20 02:51:32;;;;;;;;;;;0.40;99.90;;;;;;5052306;28;20400;-70
2022/03/20 02:53:57;;;;;;;;;;;0.30;99.90;;;;;;5053371;28;19908;-70
2022/03/20 02:56:23;;;;;;;;;;;0.20;99.90;;;;;;5053478;28;20004;-70
2022/03/20 02:58:49;;;;;;;;;;;0.20;99.90;;;;;;5053293;28;19908;-70
2022/03/20 03:01:17;;;;;;;;;;;0.20;99.90;;;;;;5053353;28;19932;-70
2022/03/20 03:03:45;;;;;;;;;;;0.20;99.90;;;;;;5053164;28;19909;-70
2022/03/20 03:06:14;;;;;;;;;;;0.30;99.90;;;;;;5053492;28;20388;-70
2022/03/20 03:11:24;;;;;;;;;;;0.30;99.90;;;;;;5053101;28;19924;-70
2022/03/20 03:13:49;;;;;;;;;;;0.40;99.90;;;;;;5050635;28;20324;-70
2022/03/20 03:16:15;;;;;;;;;;;0.40;99.90;;;;;;5036698;28;19967;-69
2022/03/20 03:18:42;;;;;;;;;;;0.40;99.90;;;;;;5045324;28;19909;-69
2022/03/20 03:21:11;;;;;;;;;;;0.40;99.90;;;;;;5034103;28;19936;-70
2022/03/20 03:23:37;;;;;;;;;;;0.50;99.90;;;;;;5032214;28;20371;-70
2022/03/20 03:26:04;;;;;;;;;;;0.50;99.90;;;;;;5039753;28;19916;-70
2022/03/20 03:28:36;;;;;;;;;;;0.50;99.90;;;;;;5045646;28;20362;-70
2022/03/20 03:31:11;;;;;;;;;;;0.50;99.90;;;;;;5033752;28;19959;-70
2022/03/20 03:35:41;;;;;;;;;;;0.30;99.90;;;;;;5033447;28;19909;-70
2022/03/20 03:36:22;;;;;;;;;;;0.30;99.90;;;;;;5033469;28;20027;-70
2022/03/20 03:38:48;;;;;;;;;;;0.20;99.90;;;;;;5033529;28;19920;-70
2022/03/20 03:41:13;;;;;;;;;;;0.00;99.90;;;;;;5033422;28;19996;-70
2022/03/20 03:43:39;;;;;;;;;;;0.00;99.90;;;;;;5033363;28;20008;-69
2022/03/20 03:46:04;;;;;;;;;;;0.00;99.90;;;;;;5033116;28;19913;-70
2022/03/20 03:48:30;;;;;;;;;;;0.00;99.90;;;;;;5047276;28;19909;-70
2022/03/20 03:50:55;;;;;;;;;;;0.00;99.90;;;;;;5044385;28;19909;-70
2022/03/20 03:53:21;;;;;;;;;;;0.00;99.90;;;;;;5036178;28;20274;-70
2022/03/20 03:55:47;;;;;;;;;;;0.00;99.90;;;;;;5033393;28;19970;-70
2022/03/20 03:58:13;;;;;;;;;;;0.00;99.90;;;;;;5032621;28;20277;-70
2022/03/20 04:00:38;;;;;;;;;;;-0.10;99.90;;;;;;5033151;28;19909;-70
2022/03/20 04:03:04;;;;;;;;;;;-0.10;99.90;;;;;;5033057;28;19913;-69
2022/03/20 04:05:29;;;;;;;;;;;-0.20;99.90;;;;;;5033085;28;19916;-70
2022/03/20 04:07:55;;;;;;;;;;;-0.10;99.90;;;;;;5033166;28;20201;-70
2022/03/20 04:10:20;;;;;;;;;;;-0.10;99.90;;;;;;5033263;28;20358;-69
2022/03/20 04:12:46;;;;;;;;;;;0.00;99.90;;;;;;5032765;28;20366;-70
2022/03/20 04:15:12;;;;;;;;;;;0.00;99.90;;;;;;5032772;28;19916;-70
2022/03/20 04:17:39;;;;;;;;;;;0.10;99.90;;;;;;5041527;28;19920;-70
2022/03/20 04:20:06;;;;;;;;;;;0.20;99.90;;;;;;5044974;28;19955;-69
2022/03/20 04:22:34;;;;;;;;;;;0.40;99.90;;;;;;5032778;28;19909;-70
2022/03/20 04:24:59;;;;;;;;;;;0.50;99.90;;;;;;5032550;28;19963;-70
2022/03/20 04:27:25;;;;;;;;;;;0.60;99.90;;;;;;5032785;28;19909;-70
2022/03/20 04:29:52;;;;;;;;;;;0.70;99.90;;;;;;5032787;28;19909;-70
2022/03/20 04:32:18;;;;;;;;;;;0.70;99.90;;;;;;5032566;28;19948;-70
2022/03/20 04:34:43;;;;;;;;;;;0.70;99.90;;;;;;5032291;28;19953;-70
2022/03/20 04:37:10;;;;;;;;;;;0.80;99.90;;;;;;5032600;28;19971;-70
2022/03/20 04:39:36;;;;;;;;;;;0.90;99.90;;;;;;5032595;28;19909;-70
2022/03/20 04:42:02;;;;;;;;;;;0.90;99.90;;;;;;5032514;28;19910;-70
2022/03/20 04:44:28;;;;;;;;;;;0.90;99.90;;;;;;5032320;28;20293;-70
2022/03/20 04:46:53;;;;;;;;;;;0.90;99.90;;;;;;5037671;28;20004;-69
2022/03/20 05:00:16;;;;;;;;;;;1.00;99.90;;;;;;5051664;28;19916;-70
2022/03/20 05:02:42;;;;;;;;;;;1.10;99.90;;;;;;5051296;28;19909;-70
2022/03/20 05:05:09;;;;;;;;;;;1.10;99.90;;;;;;5050966;28;19912;-70
2022/03/20 05:07:35;;;;;;;;;;;1.20;99.90;;;;;;5051351;28;19919;-70
2022/03/20 05:15:29;;;;;;;;;;;1.00;99.90;;;;;;5051633;28;20261;-71
2022/03/20 05:17:54;;;;;;;;;;;1.10;99.90;;;;;;5037354;28;19917;-70
2022/03/20 05:20:22;;;;;;;;;;;1.10;99.90;;;;;;5047663;28;19909;-70
2022/03/20 05:22:48;;;;;;;;;;;1.20;99.90;;;;;;5031952;28;19916;-70
2022/03/20 05:25:14;;;;;;;;;;;1.20;99.90;;;;;;5031818;28;19909;-70
2022/03/20 05:27:40;;;;;;;;;;;1.20;99.90;;;;;;5032060;28;19916;-70
2022/03/20 05:30:07;;;;;;;;;;;1.20;99.90;;;;;;5031847;28;19992;-70
2022/03/20 05:32:34;;;;;;;;;;;1.30;99.90;;;;;;5031748;28;20004;-70
2022/03/20 05:35:00;;;;;;;;;;;1.30;99.90;;;;;;5031479;28;20000;-70
2022/03/20 05:37:26;;;;;;;;;;;1.20;99.90;;;;;;5031907;28;19909;-70
2022/03/20 05:39:51;;;;;;;;;;;1.30;99.90;;;;;;5031925;28;19999;-70
2022/03/20 05:42:17;;;;;;;;;;;1.30;99.90;;;;;;5031857;28;19909;-70
2022/03/20 05:44:46;;;;;;;;;;;1.30;99.90;;;;;;5031631;28;19917;-70
2022/03/20 05:47:12;;;;;;;;;;;1.40;99.90;;;;;;5037816;28;19909;-70
2022/03/20 05:49:38;;;;;;;;;;;1.50;99.90;;;;;;5035907;28;19916;-70
2022/03/20 05:52:04;;;;;;;;;;;1.60;99.90;;;;;;5031649;28;19917;-70
2022/03/20 05:54:30;;;;;;;;;;;1.60;99.90;;;;;;5031478;28;19912;-70
2022/03/20 05:59:44;;;;;;;;;;;1.60;99.90;;;;;;5038526;28;19909;-70
2022/03/20 06:02:10;;;;;;;;;;;1.70;99.90;;;;;;5031515;28;19992;-70
2022/03/20 06:04:37;;;;;;;;;;;1.70;99.90;;;;;;5031430;28;19952;-70
2022/03/20 06:07:03;;;;;;;;;;;1.60;99.90;;;;;;5031757;28;19909;-70
2022/03/20 06:09:28;;;;;;;;;;;1.60;99.90;;;;;;5031522;28;19909;-70
2022/03/20 06:11:55;;;;;;;;;;;1.60;99.90;;;;;;5030163;28;19917;-70
2022/03/20 06:14:21;;;;;;;;;;;1.60;99.90;;;;;;5031413;28;19948;-70
2022/03/20 06:16:49;;;;;;;;;;;1.60;99.90;;;;;;5041251;28;20003;-70
2022/03/20 06:19:17;;;;;;;;;;;1.60;99.90;;;;;;5039191;28;19913;-70
2022/03/20 06:21:44;;;;;;;;;;;1.70;99.90;;;;;;5034166;28;20282;-69
2022/03/20 06:24:10;;;;;;;;;;;1.70;99.90;;;;;;5035196;28;20305;-70
2022/03/20 06:26:36;;;;;;;;;;;1.60;99.90;;;;;;5035084;28;19909;-70
2022/03/20 06:29:05;;;;;;;;;;;1.60;99.90;;;;;;5034939;28;19960;-70
2022/03/20 06:31:31;;;;;;;;;;;1.60;99.90;;;;;;5033407;28;20346;-70
2022/03/20 06:33:56;;;;;;;;;;;1.60;99.90;;;;;;5035044;28;19909;-70
2022/03/20 06:36:22;;;;;;;;;;;1.60;99.90;;;;;;5035146;28;19967;-70
2022/03/20 06:38:47;;;;;;;;;;;1.70;99.90;;;;;;5034871;28;19975;-70
2022/03/20 06:41:13;;;;;;;;;;;1.80;99.90;;;;;;5035037;28;19916;-70
2022/03/20 06:43:39;;;;;;;;;;;2.00;99.90;;;;;;5034957;28;19916;-70
2022/03/20 06:46:05;;;;;;;;;;;2.10;99.90;;;;;;5035513;28;19916;-70
2022/03/20 06:48:31;;;;;;;;;;;2.20;99.90;;;;;;5045040;28;19956;-70
2022/03/20 06:50:57;;;;;;;;;;;2.40;99.90;;;;;;5047791;28;19909;-70
2022/03/20 06:53:22;;;;;;;;;;;2.40;99.90;;;;;;5034395;28;20374;-70
2022/03/20 06:55:48;;;;;;;;;;;2.30;99.90;;;;;;5034537;28;19916;-70
2022/03/20 06:58:14;;;;;;;;;;;2.30;99.90;;;;;;5034062;28;20384;-72
2022/03/20 07:00:40;;;;;;;;;;;2.40;99.90;;;;;;5034650;28;20003;-70
2022/03/20 07:03:08;;;;;;;;;;;2.40;99.90;;;;;;5034122;28;20004;-70
2022/03/20 07:05:35;;;;;;;;;;;2.40;99.90;;;;;;5034344;28;19909;-70
2022/03/20 07:08:01;;;;;;;;;;;2.50;99.90;;;;;;5034354;28;20256;-70
2022/03/20 07:10:26;;;;;;;;;;;2.60;99.90;;;;;;5034174;28;19909;-70
2022/03/20 07:13:48;;;;;;;;;;;2.80;99.90;;;;;;5032614;28;19928;-70
2022/03/20 07:15:39;;;;;;;;;;;2.90;99.90;;;;;;5034451;28;19910;-70
2022/03/20 07:18:04;;;;;;;;;;;3.20;99.90;;;;;;5049337;28;19920;-70
2022/03/20 07:20:30;;;;;;;;;;;3.60;99.90;;;;;;5035879;28;20036;-70
2022/03/20 07:22:55;;;;;;;;;;;3.80;99.90;;;;;;5034326;28;20215;-70
2022/03/20 07:30:49;;;;;;;;;;;4.00;99.90;;;;;;5053439;28;20015;-71
2022/03/20 07:33:15;;;;;;;;;;;4.20;99.90;;;;;;5051663;28;20397;-70
2022/03/20 07:35:42;;;;;;;;;;;4.40;99.90;;;;;;5052202;28;19923;-70
2022/03/20 07:38:07;;;;;;;;;;;4.80;99.90;;;;;;5053163;28;19913;-70
2022/03/20 07:40:33;;;;;;;;;;;5.10;99.90;;;;;;5053298;28;19909;-70
2022/03/20 07:42:59;;;;;;;;;;;5.30;99.90;;;;;;5053324;28;19913;-70
2022/03/20 07:45:24;;;;;;;;;;;5.50;99.90;;;;;;5052711;28;19912;-70
2022/03/20 07:47:50;;;;;;;;;;;5.40;99.90;;;;;;5042455;28;19924;-70
2022/03/20 07:50:15;;;;;;;;;;;5.50;99.90;;;;;;5041624;28;20007;-70
2022/03/20 07:52:41;;;;;;;;;;;5.60;99.90;;;;;;5033344;28;19917;-70
2022/03/20 07:55:06;;;;;;;;;;;5.70;99.90;;;;;;5033091;28;20163;-70
2022/03/20 07:57:32;;;;;;;;;;;6.10;99.90;;;;;;5034353;28;19967;-71
2022/03/20 07:59:58;;;;;;;;;;;6.80;99.40;;;;;;5034199;28;19944;-71
2022/03/20 08:02:23;;;;;;;;;;;8.30;96.70;;;;;;5032897;28;20289;-70
2022/03/20 08:04:51;;;;;;;;;;;8.90;94.30;;;;;;5033372;28;19909;-70
2022/03/20 08:07:18;;;;;;;;;;;8.60;92.20;;;;;;5033428;28;19913;-71
2022/03/20 08:09:44;;;;;;;;;;;9.40;90.00;;;;;;5033202;28;20263;-71
2022/03/20 08:12:09;;;;;;;;;;;10.60;82.70;;;;;;5033056;28;19967;-71
2022/03/20 08:14:36;;;;;;;;;;;11.00;81.10;;;;;;5032022;28;20000;-71
2022/03/20 08:17:06;;;;;;;;;;;12.10;79.20;;;;;;5038834;28;19948;-68
2022/03/20 08:19:32;;;;;;;;;;;12.90;75.60;;;;;;5044154;28;20342;-69
2022/03/20 08:21:59;;;;;;;;;;;12.40;72.80;;;;;;5035902;28;19913;-70
2022/03/20 08:24:24;;;;;;;;;;;12.80;72.00;;;;;;5032741;28;19936;-70
2022/03/20 08:26:50;;;;;;;;;;;13.20;69.60;;;;;;5032859;28;19909;-71
2022/03/20 08:29:15;;;;;;;;;;;12.70;69.60;;;;;;5031601;28;20007;-71
2022/03/20 08:31:47;;;;;;;;;;;13.30;68.70;;;;;;5032666;28;19924;-71
2022/03/20 08:34:14;;;;;;;;;;;14.30;68.80;;;;;;5032573;28;19909;-71
2022/03/20 08:36:40;;;;;;;;;;;14.90;63.10;;;;;;5033076;28;19909;-68
2022/03/20 08:39:06;;;;;;;;;;;15.20;63.60;;;;;;5032944;28;19909;-70
2022/03/20 08:41:33;;;;;;;;;;;15.80;63.90;;;;;;5033446;28;20050;-70
2022/03/20 08:43:59;;;;;;;;;;;16.00;63.00;;;;;;5032869;28;20327;-70
2022/03/20 08:46:24;;;;;;;;;;;15.40;61.80;;;;;;5034814;28;19991;-70
2022/03/20 08:48:50;;;;;;;;;;;16.00;64.20;;;;;;5045762;28;19999;-70
2022/03/20 08:51:15;;;;;;;;;;;16.10;60.90;;;;;;5033106;28;19967;-70
2022/03/20 08:53:41;;;;;;;;;;;14.40;64.20;;;;;;5033288;28;19932;-70
2022/03/20 08:56:06;;;;;;;;;;;12.90;66.10;;;;;;5033545;28;19963;-70
2022/03/20 08:58:32;;;;;;;;;;;13.30;67.70;;;;;;5032769;28;19940;-70
2022/03/20 09:00:57;;;;;;;;;;;13.20;66.30;;;;;;5033388;28;19913;-70
2022/03/20 09:03:23;;;;;;;;;;;15.80;65.60;;;;;;5032774;28;19915;-71
2022/03/20 09:05:49;;;;;;;;;;;15.70;62.70;;;;;;5033436;28;19909;-71
2022/03/20 09:08:14;;;;;;;;;;;14.60;64.20;;;;;;5033111;28;20364;-70
2022/03/20 09:10:41;;;;;;;;;;;13.90;65.20;;;;;;5033398;28;19910;-70
2022/03/20 09:13:06;;;;;;;;;;;13.70;63.70;;;;;;5032649;28;20008;-70
2022/03/20 09:15:32;;;;;;;;;;;14.60;64.00;;;;;;5033699;28;19948;-70
2022/03/20 09:20:42;;;;;;;;;;;14.20;63.00;;;;;;5036584;28;19919;-70
2022/03/20 09:23:10;;;;;;;;;;;13.40;62.40;;;;;;5032851;28;19910;-71
2022/03/20 09:25:36;;;;;;;;;;;12.10;66.60;;;;;;5033264;28;19909;-70
2022/03/20 09:28:02;;;;;;;;;;;12.00;68.10;;;;;;5033389;28;19909;-71
2022/03/20 09:30:28;;;;;;;;;;;11.80;69.30;;;;;;5032751;28;19909;-70
2022/03/20 09:32:53;;;;;;;;;;;11.70;71.20;;;;;;5032847;28;19913;-70
2022/03/20 09:35:19;;;;;;;;;;;11.40;71.30;;;;;;5032774;28;19945;-70
2022/03/20 09:37:45;;;;;;;;;;;11.40;72.40;;;;;;5033425;28;19913;-71
2022/03/20 09:40:11;;;;;;;;;;;11.20;72.90;;;;;;5034493;28;19893;-70
2022/03/20 09:42:38;;;;;;;;;;;11.30;73.00;;;;;;5046377;28;19909;-70
2022/03/20 09:45:05;;;;;;;;;;;12.30;72.00;;;;;;5051905;28;20147;-71
2022/03/20 09:47:34;;;;;;;;;;;12.30;69.40;;;;;;5037125;28;19944;-71
2022/03/20 09:49:59;;;;;;;;;;;11.90;72.50;;;;;;5045920;28;19931;-70
2022/03/20 09:52:25;;;;;;;;;;;12.50;72.80;;;;;;5052224;28;20370;-70
2022/03/20 09:54:51;;;;;;;;;;;12.60;73.50;;;;;;5051551;28;19916;-70
2022/03/20 09:57:16;;;;;;;;;;;12.30;73.30;;;;;;5052991;28;19909;-71
2022/03/20 09:59:42;;;;;;;;;;;12.30;72.10;;;;;;5054976;28;19916;-70
2022/03/20 10:02:09;;;;;;;;;;;12.30;73.00;;;;;;5054831;28;20365;-71
2022/03/20 10:04:53;;;;;;;;;;;13.10;72.30;;;;;;5054604;28;19999;-71
2022/03/20 10:07:22;;;;;;;;;;;13.80;69.20;;;;;;5053359;28;20429;-71
2022/03/20 10:10:06;;;;;;;;;;;13.80;70.80;;;;;;5054519;28;19909;-71
2022/03/20 10:12:36;;;;;;;;;;;13.70;70.80;;;;;;5054428;28;19956;-71
2022/03/20 10:15:02;;;;;;;;;;;12.90;71.50;;;;;;5054348;28;19999;-71
2022/03/20 10:17:28;;;;;;;;;;;12.60;71.60;;;;;;5049239;28;20317;-72
2022/03/20 10:19:55;;;;;;;;;;;12.60;73.20;;;;;;5043703;28;20000;-71
2022/03/20 10:22:21;;;;;;;;;;;12.40;73.90;;;;;;5051667;28;19970;-71
2022/03/20 10:24:48;;;;;;;;;;;12.50;74.90;;;;;;5054039;28;19964;-71
2022/03/20 10:27:15;;;;;;;;;;;12.50;73.80;;;;;;5053860;28;20315;-71
2022/03/20 10:29:51;;;;;;;;;;;12.70;73.70;;;;;;5054174;28;19970;-71
2022/03/20 10:32:17;;;;;;;;;;;12.70;73.70;;;;;;5054076;28;19959;-71
2022/03/20 10:35:04;;;;;;;;;;;12.70;72.90;;;;;;5053926;28;19948;-72
2022/03/20 10:37:46;;;;;;;;;;;12.70;74.20;;;;;;5054162;28;20350;-71
2022/03/20 10:40:13;;;;;;;;;;;13.00;74.00;;;;;;5054038;28;20362;-71
2022/03/20 10:42:39;;;;;;;;;;;13.50;70.40;;;;;;5053972;28;20119;-71
2022/03/20 10:45:05;;;;;;;;;;;15.50;68.80;;;;;;5054152;28;19919;-71
2022/03/20 10:47:31;;;;;;;;;;;15.30;68.60;;;;;;5041676;28;20270;-71
2022/03/20 10:50:06;;;;;;;;;;;15.10;68.90;;;;;;5043720;28;20012;-72
2022/03/20 10:52:32;;;;;;;;;;;15.90;67.10;;;;;;5034465;28;19928;-70
2022/03/20 10:54:58;;;;;;;;;;;17.50;65.00;;;;;;5044463;28;19995;-72
2022/03/20 10:57:32;;;;;;;;;;;18.70;60.60;;;;;;5045580;28;20350;-72
2022/03/20 10:59:58;;;;;;;;;;;20.00;57.50;;;;;;5053515;28;19909;-71
2022/03/20 11:02:24;;;;;;;;;;;21.50;53.90;;;;;;5053952;28;19908;-72
2022/03/20 11:04:50;;;;;;;;;;;23.50;53.40;;;;;;5054600;28;19996;-72
2022/03/20 11:07:16;;;;;;;;;;;22.00;51.00;;;;;;5054158;28;19913;-72
2022/03/20 11:09:49;;;;;;;;;;;20.90;52.40;;;;;;5053736;28;19909;-72
2022/03/20 11:12:17;;;;;;;;;;;20.30;53.40;;;;;;5055312;28;19942;-72
2022/03/20 11:14:42;;;;;;;;;;;22.90;51.00;;;;;;5054052;28;19909;-72
2022/03/20 11:17:08;;;;;;;;;;;21.80;49.20;;;;;;5047965;28;19924;-72
2022/03/20 11:19:34;;;;;;;;;;;20.50;51.90;;;;;;5040595;28;19913;-72
2022/03/20 11:22:02;;;;;;;;;;;20.80;51.80;;;;;;5033762;28;19948;-72
2022/03/20 11:24:28;;;;;;;;;;;23.70;48.40;;;;;;5034662;28;19913;-73
2022/03/20 11:26:57;;;;;;;;;;;25.40;45.50;;;;;;5034776;28;19909;-72
2022/03/20 11:29:24;;;;;;;;;;;23.20;45.20;;;;;;5034646;28;19913;-73
2022/03/20 11:31:49;;;;;;;;;;;24.60;46.20;;;;;;5034418;28;20540;-73
2022/03/20 11:34:15;;;;;;;;;;;25.80;43.80;;;;;;5034410;28;20000;-73
2022/03/20 11:36:59;;;;;;;;;;;26.80;42.90;;;;;;5034819;28;19909;-70
2022/03/20 11:39:25;;;;;;;;;;;25.80;42.40;;;;;;5034543;28;19998;-72
2022/03/20 11:42:09;;;;;;;;;;;24.60;43.00;;;;;;5034268;28;20278;-73
2022/03/20 11:44:35;;;;;;;;;;;24.70;42.60;;;;;;5046883;28;20013;-73
2022/03/20 11:47:12;;;;;;;;;;;24.70;42.70;;;;;;5046461;28;19913;-73
2022/03/20 11:49:39;;;;;;;;;;;24.80;43.40;;;;;;5043927;28;19909;-73
2022/03/20 11:52:06;;;;;;;;;;;24.00;44.70;;;;;;5033574;28;19917;-72
2022/03/20 11:54:50;;;;;;;;;;;23.30;42.90;;;;;;5033750;28;20007;-73
2022/03/20 11:57:24;;;;;;;;;;;21.00;47.30;;;;;;5033989;28;19913;-73
2022/03/20 11:59:51;;;;;;;;;;;23.10;44.30;;;;;;5033881;28;19913;-72
2022/03/20 12:02:18;;;;;;;;;;;23.10;42.80;;;;;;5033966;28;19917;-73
2022/03/20 12:05:01;;;;;;;;;;;20.80;45.90;;;;;;5033612;28;19913;-73
2022/03/20 12:07:54;;;;;;;;;;;19.50;49.20;;;;;;5034075;28;19910;-73
2022/03/20 12:10:31;;;;;;;;;;;18.90;50.90;;;;;;5040003;28;19971;-73
2022/03/20 12:13:14;;;;;;;;;;;18.30;51.40;;;;;;5033501;28;20265;-73
2022/03/20 12:15:43;;;;;;;;;;;17.90;50.90;;;;;;5033269;28;19909;-72
2022/03/20 12:18:10;;;;;;;;;;;16.80;49.60;;;;;;5033646;28;19920;-72
2022/03/20 12:20:52;;;;;;;;;;;16.90;52.70;;;;;;5044876;28;19916;-73
2022/03/20 12:23:30;;;;;;;;;;;17.20;54.60;;;;;;5032645;28;19909;-72
2022/03/20 12:25:55;;;;;;;;;;;16.50;51.50;;;;;;5032997;28;19913;-72
2022/03/20 12:28:27;;;;;;;;;;;16.70;51.80;;;;;;5033041;28;20333;-73
2022/03/20 12:30:53;;;;;;;;;;;16.50;52.20;;;;;;5033012;28;19916;-72
2022/03/20 12:33:23;;;;;;;;;;;16.40;53.10;;;;;;5032664;28;20004;-73
2022/03/20 12:35:49;;;;;;;;;;;16.30;53.20;;;;;;5033157;28;19910;-72
2022/03/20 12:38:37;;;;;;;;;;;15.90;51.50;;;;;;5043201;28;19909;-73
2022/03/20 12:41:07;;;;;;;;;;;16.00;50.50;;;;;;5052156;28;19908;-73
2022/03/20 12:43:32;;;;;;;;;;;15.90;49.90;;;;;;5052087;28;19920;-72
2022/03/20 12:46:00;;;;;;;;;;;15.90;53.20;;;;;;5052330;28;19912;-71
2022/03/20 12:48:30;;;;;;;;;;;15.70;52.30;;;;;;5048204;28;19913;-73
2022/03/20 12:50:57;;;;;;;;;;;16.00;53.60;;;;;;5046227;28;19913;-73
2022/03/20 12:53:24;;;;;;;;;;;16.00;53.80;;;;;;5033477;28;19920;-73
2022/03/20 12:55:59;;;;;;;;;;;16.10;55.10;;;;;;5033095;28;19939;-73
2022/03/20 12:58:25;;;;;;;;;;;16.20;52.00;;;;;;5032687;28;20313;-73
2022/03/20 13:00:52;;;;;;;;;;;16.00;50.60;;;;;;5033014;28;19962;-72
2022/03/20 13:03:18;;;;;;;;;;;16.40;51.70;;;;;;5032803;28;20278;-73
2022/03/20 13:05:47;;;;;;;;;;;16.60;48.50;;;;;;5032800;28;19910;-72
2022/03/20 13:08:31;;;;;;;;;;;16.80;48.10;;;;;;5032958;28;19953;-72
2022/03/20 13:11:03;;;;;;;;;;;17.20;50.40;;;;;;5042242;28;19915;-72
2022/03/20 13:13:36;;;;;;;;;;;17.50;48.40;;;;;;5051445;28;19927;-72
2022/03/20 13:16:05;;;;;;;;;;;17.70;51.20;;;;;;5041484;28;20016;-73
2022/03/20 13:18:31;;;;;;;;;;;17.70;51.60;;;;;;5039185;28;19999;-72
2022/03/20 13:20:58;;;;;;;;;;;17.30;49.20;;;;;;5033726;28;19917;-72
2022/03/20 13:23:26;;;;;;;;;;;17.00;49.30;;;;;;5031824;28;20282;-73
2022/03/20 13:25:53;;;;;;;;;;;16.50;47.60;;;;;;5031920;28;19909;-72
2022/03/20 13:28:24;;;;;;;;;;;16.60;51.20;;;;;;5031997;28;20362;-71
2022/03/20 13:30:50;;;;;;;;;;;16.40;49.30;;;;;;5033076;28;20340;-73
2022/03/20 13:33:26;;;;;;;;;;;16.30;47.20;;;;;;5035635;28;19913;-73
2022/03/20 13:35:52;;;;;;;;;;;16.10;46.80;;;;;;5035980;28;20004;-72
2022/03/20 13:38:18;;;;;;;;;;;16.30;51.00;;;;;;5035863;28;19918;-72
2022/03/20 13:40:43;;;;;;;;;;;16.00;49.20;;;;;;5035875;28;19909;-72
2022/03/20 13:43:11;;;;;;;;;;;15.80;51.20;;;;;;5035089;28;19909;-73
2022/03/20 13:45:37;;;;;;;;;;;15.70;50.50;;;;;;5044089;28;19924;-72
2022/03/20 13:48:04;;;;;;;;;;;15.80;49.40;;;;;;5039780;28;19908;-72
2022/03/20 13:50:30;;;;;;;;;;;15.90;51.40;;;;;;5035718;28;19999;-72
2022/03/20 13:52:55;;;;;;;;;;;15.60;51.40;;;;;;5034542;28;20059;-73
2022/03/20 13:55:21;;;;;;;;;;;15.80;51.50;;;;;;5034784;28;20324;-73
2022/03/20 13:57:55;;;;;;;;;;;15.70;51.50;;;;;;5035173;28;19916;-72
2022/03/20 14:00:30;;;;;;;;;;;15.50;51.70;;;;;;5035001;28;20003;-71
2022/03/20 14:02:56;;;;;;;;;;;15.40;52.70;;;;;;5034845;28;19917;-71
2022/03/20 14:05:25;;;;;;;;;;;15.30;51.40;;;;;;5035179;28;19909;-71
2022/03/20 14:08:09;;;;;;;;;;;15.30;52.80;;;;;;5054224;28;19909;-71
2022/03/20 14:10:48;;;;;;;;;;;15.50;52.10;;;;;;5046170;28;19917;-70
2022/03/20 14:13:36;;;;;;;;;;;15.40;51.30;;;;;;5046092;28;19953;-71
2022/03/20 14:16:07;;;;;;;;;;;15.30;50.80;;;;;;5041682;28;19916;-71
2022/03/20 14:18:34;;;;;;;;;;;15.50;50.40;;;;;;5035055;28;20420;-71
2022/03/20 14:21:11;;;;;;;;;;;15.50;50.70;;;;;;5034408;28;19909;-69
2022/03/20 14:23:51;;;;;;;;;;;15.40;50.30;;;;;;5034863;28;19995;-71
2022/03/20 14:26:18;;;;;;;;;;;15.40;51.10;;;;;;5034962;28;20282;-70
2022/03/20 14:28:43;;;;;;;;;;;15.40;52.00;;;;;;5034996;28;20366;-71
2022/03/20 14:39:26;;;;;;;;;;;15.50;48.90;;;;;;5054331;28;19931;-71
2022/03/20 14:41:55;;;;;;;;;;;15.50;50.00;;;;;;5052436;28;19909;-71
2022/03/20 14:44:21;;;;;;;;;;;15.30;51.00;;;;;;5045238;28;19916;-71
2022/03/20 14:46:51;;;;;;;;;;;15.20;52.90;;;;;;5039339;28;19968;-70
2022/03/20 14:49:17;;;;;;;;;;;15.20;53.30;;;;;;5049527;28;19909;-70
2022/03/20 14:51:45;;;;;;;;;;;15.40;51.50;;;;;;5037319;28;19939;-70
2022/03/20 14:54:11;;;;;;;;;;;15.30;51.40;;;;;;5034403;28;19917;-71
2022/03/20 14:56:37;;;;;;;;;;;15.30;51.30;;;;;;5034674;28;19987;-72
2022/03/20 14:59:04;;;;;;;;;;;15.40;50.90;;;;;;5034483;28;19986;-71
2022/03/20 15:01:30;;;;;;;;;;;15.30;49.90;;;;;;5034379;28;19916;-71
2022/03/20 15:03:56;;;;;;;;;;;15.30;53.20;;;;;;5034114;28;20369;-71